This is the latest recevied weather packets stored in our database for station/object K0WXC-1. If no packets are shown the sender has not sent any weather packets the latest 10 day(s).
| Time | Temp. | Humidity | Pressure | Rain* | Wind** | Luminosity | Snow |
|---|---|---|---|---|---|---|---|
| 1776974248 | 25.56° C | 61% | 991.8 hPa | 0 mm | 1.79 m/s, 152° | - | - |
| 1776974188 | 25.56° C | 61% | 991.8 hPa | 0 mm | 1.79 m/s, 152° | - | - |
| 1776974128 | 26.11° C | 60% | 992 hPa | 0 mm | 0.89 m/s, 164° | - | - |
| 1776974068 | 26.11° C | 60% | 992 hPa | 0 mm | 0.89 m/s, 164° | - | - |
| 1776974008 | 26.11° C | 60% | 992 hPa | 0 mm | 0.89 m/s, 164° | - | - |
| 1776973948 | 26.11° C | 60% | 992 hPa | 0 mm | 0.89 m/s, 164° | - | - |
| 1776973888 | 26.11° C | 60% | 992 hPa | 0 mm | 0.89 m/s, 164° | - | - |
| 1776973828 | 26.11° C | 59% | 991.7 hPa | 0 mm | 3.13 m/s, 109° | - | - |
| 1776973768 | 26.11° C | 59% | 991.7 hPa | 0 mm | 3.13 m/s, 109° | - | - |
| 1776973708 | 26.11° C | 59% | 991.7 hPa | 0 mm | 3.13 m/s, 109° | - | - |
| 1776973648 | 26.11° C | 59% | 991.7 hPa | 0 mm | 3.13 m/s, 109° | - | - |
| 1776973588 | 26.11° C | 59% | 991.7 hPa | 0 mm | 3.13 m/s, 109° | - | - |
| 1776973528 | 25.56° C | 59% | 991.8 hPa | 0 mm | 2.24 m/s, 193° | - | - |
| 1776973468 | 25.56° C | 59% | 991.8 hPa | 0 mm | 2.24 m/s, 193° | - | - |
| 1776973408 | 25.56° C | 59% | 991.8 hPa | 0 mm | 2.24 m/s, 193° | - | - |
| 1776973348 | 25.56° C | 59% | 991.8 hPa | 0 mm | 2.24 m/s, 193° | - | - |
| 1776973288 | 25.56° C | 60% | 992.2 hPa | 0 mm | 1.34 m/s, 244° | - | - |
| 1776973228 | 25.56° C | 60% | 992.2 hPa | 0 mm | 1.34 m/s, 244° | - | - |
| 1776973168 | 25.56° C | 60% | 992.2 hPa | 0 mm | 1.34 m/s, 244° | - | - |
| 1776973108 | 25.56° C | 60% | 992.2 hPa | 0 mm | 1.34 m/s, 244° | - | - |
| 1776973048 | 25.56° C | 60% | 992.2 hPa | 0 mm | 1.34 m/s, 244° | - | - |
| 1776972988 | 25.56° C | 60% | 992.2 hPa | 0 mm | 1.34 m/s, 244° | - | - |
| 1776972928 | 26.11° C | 60% | 992.2 hPa | 0 mm | 0.45 m/s, 182° | - | - |
| 1776972868 | 26.11° C | 60% | 992.2 hPa | 0 mm | 0.45 m/s, 182° | - | - |
| 1776972808 | 26.11° C | 60% | 992.2 hPa | 0 mm | 0.45 m/s, 182° | - | - |
* Rain latest hour (hover to see other rain measurements)
** Current wind speed in m/s (hover to see current wind gust speed)